createdAt,value
2023-07-12T00:02:48.972Z,11.30
2023-07-12T00:06:30.562Z,6.73
2023-07-12T00:10:12.370Z,5.17
2023-07-12T00:13:54.214Z,6.02
2023-07-12T00:17:35.886Z,4.38
2023-07-12T00:21:17.651Z,5.22
2023-07-12T00:24:59.471Z,6.68
2023-07-12T00:28:41.066Z,2.51
2023-07-12T00:32:22.793Z,5.58
2023-07-12T00:36:04.559Z,6.13
2023-07-12T00:39:46.401Z,8.85
2023-07-12T00:43:28.072Z,3.95
2023-07-12T00:47:09.777Z,5.37
2023-07-12T00:50:51.496Z,4.69
2023-07-12T00:54:33.226Z,3.94
2023-07-12T00:58:15.001Z,4.23
2023-07-12T01:01:56.800Z,4.10
2023-07-12T01:05:38.390Z,3.29
2023-07-12T01:09:23.272Z,4.90
2023-07-12T01:13:02.347Z,4.05
2023-07-12T01:16:43.989Z,3.68
2023-07-12T01:20:25.640Z,3.56
2023-07-12T01:24:07.238Z,4.95
2023-07-12T01:27:48.986Z,4.41
2023-07-12T01:31:30.688Z,3.29
2023-07-12T01:35:12.359Z,5.68
2023-07-12T01:38:54.178Z,5.43
2023-07-12T01:42:35.840Z,4.87
2023-07-12T01:46:20.644Z,2.70
2023-07-12T01:49:59.092Z,8.31
2023-07-12T01:53:40.874Z,5.86
2023-07-12T01:57:22.631Z,5.34
2023-07-12T02:01:04.283Z,3.79
2023-07-12T02:04:45.891Z,4.42
2023-07-12T02:08:27.552Z,4.90
2023-07-12T02:12:09.148Z,2.48
2023-07-12T02:15:50.865Z,6.37
2023-07-12T02:19:32.686Z,9.23
2023-07-12T02:23:14.324Z,6.48
2023-07-12T02:26:55.991Z,4.96
2023-07-12T02:30:37.593Z,7.64
2023-07-12T02:34:19.258Z,3.80
2023-07-12T02:38:00.845Z,2.86
2023-07-12T02:41:42.408Z,3.27
2023-07-12T02:45:24.052Z,5.64
2023-07-12T02:49:05.706Z,4.21
2023-07-12T02:52:47.296Z,2.32
2023-07-12T02:56:28.895Z,4.51
2023-07-12T03:00:11.627Z,3.49
2023-07-12T03:03:53.204Z,2.19
2023-07-12T03:07:34.852Z,4.56
2023-07-12T03:11:16.512Z,5.11
2023-07-12T03:14:58.150Z,3.59
2023-07-12T03:18:39.923Z,3.52
2023-07-12T03:22:21.348Z,2.09
2023-07-12T03:26:02.942Z,2.72
2023-07-12T03:29:44.540Z,4.88
2023-07-12T03:33:26.114Z,2.58
2023-07-12T03:37:07.702Z,2.48
2023-07-12T03:40:49.244Z,2.87
2023-07-12T03:44:30.829Z,3.85
2023-07-12T03:48:12.515Z,4.56
2023-07-12T03:51:54.080Z,4.87
2023-07-12T03:55:35.698Z,2.41
2023-07-12T03:59:17.274Z,2.81
2023-07-12T04:02:58.918Z,2.48
2023-07-12T04:10:20.532Z,2.53
2023-07-12T04:14:02.114Z,3.83
2023-07-12T04:17:43.745Z,3.51
2023-07-12T04:21:25.302Z,8.55
2023-07-12T04:25:06.927Z,6.07
2023-07-12T04:28:48.591Z,6.15
2023-07-12T04:32:30.238Z,4.24
2023-07-12T04:36:11.928Z,6.27
2023-07-12T04:39:53.734Z,6.03
2023-07-12T04:43:35.650Z,8.80
2023-07-12T04:47:17.606Z,11.33
2023-07-12T04:50:59.453Z,13.61
2023-07-12T04:54:41.457Z,11.19
2023-07-12T04:58:23.331Z,11.29
2023-07-12T05:02:05.253Z,10.85
2023-07-12T05:05:47.167Z,9.47
2023-07-12T05:09:28.980Z,9.18
2023-07-12T05:13:10.694Z,3.95
2023-07-12T05:16:52.308Z,5.68
2023-07-12T05:20:33.911Z,2.09
2023-07-12T05:24:15.471Z,2.09
2023-07-12T05:31:37.096Z,2.93
2023-07-12T05:35:18.706Z,2.48
2023-07-12T05:42:40.380Z,2.56
2023-07-12T05:46:22.091Z,4.47
2023-07-12T05:50:03.907Z,6.24
2023-07-12T05:53:45.687Z,6.60
2023-07-12T05:57:27.334Z,4.45
2023-07-12T06:01:09.468Z,4.68
2023-07-12T06:04:50.772Z,3.54
2023-07-12T06:08:32.501Z,7.90
2023-07-12T06:12:14.232Z,6.59
2023-07-12T06:15:56.008Z,6.80
2023-07-12T06:19:37.966Z,5.79
2023-07-12T06:23:19.678Z,7.05
2023-07-12T06:27:01.467Z,8.90
2023-07-12T06:30:43.317Z,5.73
2023-07-12T06:34:25.043Z,7.29
2023-07-12T06:38:06.743Z,5.61
2023-07-12T06:41:48.468Z,5.17
2023-07-12T06:45:30.122Z,3.44
2023-07-12T06:49:11.712Z,2.61
2023-07-12T06:52:53.321Z,4.98
2023-07-12T06:56:35.030Z,6.89
2023-07-12T07:00:16.602Z,2.09
2023-07-12T07:03:58.216Z,3.25
2023-07-12T07:07:39.904Z,2.52
2023-07-12T07:11:21.515Z,5.66
2023-07-12T07:18:43.394Z,2.32
2023-07-12T07:22:24.866Z,3.57
2023-07-12T07:26:08.220Z,3.77
2023-07-12T07:29:48.083Z,2.81
2023-07-12T07:33:29.883Z,5.93
2023-07-12T07:37:11.629Z,4.39
2023-07-12T07:44:33.271Z,2.32
2023-07-12T07:48:14.890Z,7.43
2023-07-12T07:51:56.613Z,2.48
2023-07-12T07:55:38.202Z,3.44
2023-07-12T08:02:59.984Z,3.59
2023-07-12T08:06:41.510Z,5.18
2023-07-12T08:14:03.320Z,3.63
2023-07-12T08:21:24.905Z,2.19
2023-07-12T08:25:06.480Z,1.90
2023-07-12T08:32:28.130Z,2.09
2023-07-12T08:36:09.661Z,3.60
2023-07-12T08:39:51.286Z,2.56
2023-07-12T08:43:32.874Z,2.97
2023-07-12T08:50:54.597Z,3.71
2023-07-12T09:01:56.452Z,3.37
2023-07-12T09:05:37.987Z,4.60
2023-07-12T09:09:19.783Z,5.32
2023-07-12T09:16:41.390Z,2.09
2023-07-12T09:20:23.134Z,6.04
2023-07-12T09:27:45.058Z,4.90
2023-07-12T09:31:26.785Z,3.65
2023-07-12T09:35:08.437Z,4.40
2023-07-12T09:38:50.217Z,3.88
2023-07-12T09:42:32.047Z,4.12
2023-07-12T09:46:13.906Z,3.28
2023-07-12T09:49:55.434Z,3.15
2023-07-12T09:53:37.119Z,4.61
2023-07-12T09:57:18.902Z,4.65
2023-07-12T10:01:00.698Z,3.29
2023-07-12T10:04:42.407Z,3.89
2023-07-12T10:12:04.109Z,2.56
2023-07-12T10:23:06.483Z,2.76
2023-07-12T10:26:47.707Z,4.30
2023-07-12T10:37:49.535Z,2.28
2023-07-12T10:41:31.144Z,2.48
2023-07-12T10:52:32.838Z,0.00
2023-07-12T11:03:34.645Z,0.00
2023-07-12T11:14:36.314Z,0.00
2023-07-12T11:25:38.069Z,0.00
2023-07-12T11:32:59.752Z,2.09
2023-07-12T11:44:01.449Z,2.53
2023-07-12T11:51:23.108Z,2.90
2023-07-12T11:55:04.762Z,3.12
2023-07-12T12:06:06.675Z,0.00
2023-07-12T12:17:08.539Z,2.81
2023-07-12T12:28:10.305Z,2.22
2023-07-12T12:31:51.849Z,2.35
2023-07-12T12:35:33.544Z,2.86
2023-07-12T12:58:06.963Z,0.00
2023-07-12T13:19:42.595Z,0.00
2023-07-12T13:30:42.176Z,0.00
2023-07-12T13:52:45.641Z,2.40
2023-07-12T14:00:09.316Z,3.23
2023-07-12T14:03:50.532Z,3.55
2023-07-12T14:11:13.725Z,4.59
2023-07-12T14:14:55.536Z,5.06
2023-07-12T14:18:37.407Z,4.68
2023-07-12T14:22:19.170Z,3.22
2023-07-12T14:26:00.938Z,4.26
2023-07-12T14:33:24.316Z,3.01
2023-07-12T14:37:05.954Z,4.96
2023-07-12T14:40:47.657Z,4.00
2023-07-12T14:52:03.821Z,2.77
2023-07-12T14:55:31.076Z,3.59
2023-07-12T14:59:12.722Z,2.62
2023-07-12T15:06:34.466Z,4.36
2023-07-12T15:10:16.159Z,2.71
2023-07-12T15:13:58.017Z,4.38
2023-07-12T15:17:39.884Z,3.94
2023-07-12T15:21:21.518Z,2.75
2023-07-12T15:25:03.253Z,4.04
2023-07-12T15:36:05.142Z,0.00
2023-07-12T15:39:46.756Z,1.70
2023-07-12T15:43:28.390Z,2.19
2023-07-12T15:47:09.945Z,2.29
2023-07-12T15:58:11.764Z,0.00
2023-07-12T16:05:33.670Z,2.22
2023-07-12T16:16:35.907Z,2.62
2023-07-12T16:20:17.839Z,2.28
2023-07-12T16:23:59.979Z,4.31
2023-07-12T16:27:42.201Z,5.40
2023-07-12T16:31:24.333Z,5.19
2023-07-12T16:35:06.365Z,5.57
2023-07-12T16:38:48.408Z,4.32
2023-07-12T16:42:30.369Z,3.69
2023-07-12T16:53:32.445Z,0.00
2023-07-12T16:57:14.336Z,3.63
2023-07-12T17:00:56.289Z,4.40
2023-07-12T17:11:58.381Z,0.00
2023-07-12T17:15:40.363Z,3.28
2023-07-12T17:19:22.423Z,3.36
2023-07-12T17:23:04.388Z,2.29
2023-07-12T17:34:06.506Z,0.00
2023-07-12T17:45:08.645Z,3.18
2023-07-12T17:48:50.738Z,4.09
2023-07-12T17:52:32.786Z,2.79
2023-07-12T18:03:35.148Z,3.56
2023-07-12T18:07:16.932Z,2.56
2023-07-12T18:14:38.997Z,2.41
2023-07-12T18:25:41.242Z,0.00
2023-07-12T18:29:23.286Z,3.00
2023-07-12T18:33:05.365Z,2.21
2023-07-12T18:44:07.491Z,0.00
2023-07-12T18:55:09.741Z,0.00
2023-07-12T19:06:12.100Z,0.00
2023-07-12T19:17:14.158Z,0.00
2023-07-12T19:20:55.987Z,2.17
2023-07-12T19:31:58.162Z,2.35
2023-07-12T19:35:40.228Z,2.09
2023-07-12T19:39:22.286Z,3.88
2023-07-12T19:43:04.262Z,2.09
2023-07-12T19:54:06.478Z,0.00
2023-07-12T20:05:08.834Z,0.00
2023-07-12T20:08:50.542Z,2.32
2023-07-12T20:12:32.508Z,2.67
2023-07-12T20:16:14.433Z,2.48
2023-07-12T20:19:56.393Z,3.25
2023-07-12T20:23:38.412Z,2.94
2023-07-12T20:27:20.469Z,3.15
2023-07-12T20:31:02.812Z,3.99
2023-07-12T20:34:44.723Z,3.44
2023-07-12T20:45:46.856Z,0.00
2023-07-12T20:56:48.961Z,0.00
2023-07-12T21:04:38.544Z,6.06
2023-07-12T21:08:20.121Z,2.86
2023-07-12T21:12:01.834Z,3.35
2023-07-12T21:23:03.601Z,2.19
2023-07-12T21:34:05.343Z,2.09
2023-07-12T21:37:46.908Z,2.17
2023-07-12T21:41:28.727Z,3.06
2023-07-12T21:45:10.420Z,2.56
2023-07-12T21:52:32.196Z,2.61
2023-07-12T21:56:13.822Z,2.35
2023-07-12T21:59:55.413Z,3.12
2023-07-12T22:10:57.217Z,0.00
2023-07-12T22:14:38.788Z,1.70
2023-07-12T22:18:21.020Z,2.42
2023-07-12T22:22:02.043Z,2.58
2023-07-12T22:25:43.686Z,3.59
2023-07-12T22:29:25.403Z,2.09
2023-07-12T22:33:07.166Z,3.31
2023-07-12T22:36:48.831Z,3.72
2023-07-12T22:40:30.610Z,7.22
2023-07-12T22:47:52.336Z,2.28
2023-07-12T22:51:33.851Z,2.87
2023-07-12T22:55:15.484Z,2.29
2023-07-12T22:58:57.062Z,2.09
2023-07-12T23:02:38.929Z,3.08
2023-07-12T23:06:20.403Z,2.09
2023-07-12T23:10:02.190Z,4.45
2023-07-12T23:13:43.860Z,4.00
2023-07-12T23:17:25.614Z,4.81
2023-07-12T23:21:07.329Z,4.94
2023-07-12T23:24:49.328Z,6.57
2023-07-12T23:28:31.156Z,5.95
2023-07-12T23:32:12.897Z,5.29
2023-07-12T23:35:54.705Z,5.19
2023-07-12T23:39:36.382Z,5.08
2023-07-12T23:43:18.281Z,6.04
2023-07-12T23:46:59.912Z,6.57
2023-07-12T23:50:41.470Z,3.35
2023-07-12T23:58:03.164Z,2.56
